sensor_id;sensor_type;location;lat;lon;timestamp;temperature;humidity
19947;DHT22;10135;50.702;7.276;2022-09-01T00:01:24;21.50;48.60
19947;DHT22;10135;50.702;7.276;2022-09-01T00:03:26;21.50;48.60
19947;DHT22;10135;50.702;7.276;2022-09-01T00:05:27;21.50;48.60
19947;DHT22;10135;50.702;7.276;2022-09-01T00:07:29;21.40;48.60
19947;DHT22;10135;50.702;7.276;2022-09-01T00:09:30;21.40;48.70
19947;DHT22;10135;50.702;7.276;2022-09-01T00:11:32;21.40;48.80
19947;DHT22;10135;50.702;7.276;2022-09-01T00:13:33;21.40;48.80
19947;DHT22;10135;50.702;7.276;2022-09-01T00:15:34;21.30;48.90
19947;DHT22;10135;50.702;7.276;2022-09-01T00:17:35;21.30;48.90
19947;DHT22;10135;50.702;7.276;2022-09-01T00:19:37;21.20;48.90
19947;DHT22;10135;50.702;7.276;2022-09-01T00:21:42;21.20;49.00
19947;DHT22;10135;50.702;7.276;2022-09-01T00:23:44;21.10;49.00
19947;DHT22;10135;50.702;7.276;2022-09-01T00:25:45;21.10;49.00
19947;DHT22;10135;50.702;7.276;2022-09-01T00:27:47;21.10;49.00
19947;DHT22;10135;50.702;7.276;2022-09-01T00:29:48;21.00;49.00
19947;DHT22;10135;50.702;7.276;2022-09-01T00:31:50;21.00;49.00
19947;DHT22;10135;50.702;7.276;2022-09-01T00:33:51;20.90;49.00
19947;DHT22;10135;50.702;7.276;2022-09-01T00:35:52;20.90;49.00
19947;DHT22;10135;50.702;7.276;2022-09-01T00:37:53;20.90;49.10
19947;DHT22;10135;50.702;7.276;2022-09-01T00:39:54;20.90;49.20
19947;DHT22;10135;50.702;7.276;2022-09-01T00:41:54;20.80;49.30
19947;DHT22;10135;50.702;7.276;2022-09-01T00:43:58;20.80;49.30
19947;DHT22;10135;50.702;7.276;2022-09-01T00:46:04;20.80;49.40
19947;DHT22;10135;50.702;7.276;2022-09-01T00:48:06;20.80;49.40
19947;DHT22;10135;50.702;7.276;2022-09-01T00:50:09;20.80;49.40
19947;DHT22;10135;50.702;7.276;2022-09-01T00:52:50;20.80;49.40
19947;DHT22;10135;50.702;7.276;2022-09-01T00:54:55;20.80;49.40
19947;DHT22;10135;50.702;7.276;2022-09-01T00:57:00;20.70;49.30
19947;DHT22;10135;50.702;7.276;2022-09-01T00:59:04;20.80;49.40
19947;DHT22;10135;50.702;7.276;2022-09-01T01:01:09;20.70;49.40
19947;DHT22;10135;50.702;7.276;2022-09-01T01:03:12;20.70;49.50
19947;DHT22;10135;50.702;7.276;2022-09-01T01:05:13;20.70;49.50
19947;DHT22;10135;50.702;7.276;2022-09-01T01:07:14;20.70;49.50
19947;DHT22;10135;50.702;7.276;2022-09-01T01:09:20;20.70;49.60
19947;DHT22;10135;50.702;7.276;2022-09-01T01:11:21;20.70;49.80
19947;DHT22;10135;50.702;7.276;2022-09-01T01:13:23;20.60;49.60
19947;DHT22;10135;50.702;7.276;2022-09-01T01:15:28;20.60;49.70
19947;DHT22;10135;50.702;7.276;2022-09-01T01:17:28;20.70;49.70
19947;DHT22;10135;50.702;7.276;2022-09-01T01:19:39;20.60;49.70
19947;DHT22;10135;50.702;7.276;2022-09-01T01:22:01;20.60;49.70
19947;DHT22;10135;50.702;7.276;2022-09-01T01:24:31;20.60;49.70
19947;DHT22;10135;50.702;7.276;2022-09-01T01:26:34;20.60;49.80
19947;DHT22;10135;50.702;7.276;2022-09-01T01:28:37;20.60;49.70
19947;DHT22;10135;50.702;7.276;2022-09-01T01:30:44;20.50;49.70
19947;DHT22;10135;50.702;7.276;2022-09-01T01:32:50;20.60;49.90
19947;DHT22;10135;50.702;7.276;2022-09-01T01:34:52;20.50;49.80
19947;DHT22;10135;50.702;7.276;2022-09-01T01:36:53;20.50;49.90
19947;DHT22;10135;50.702;7.276;2022-09-01T01:38:54;20.50;49.90
19947;DHT22;10135;50.702;7.276;2022-09-01T01:40:56;20.50;50.60
19947;DHT22;10135;50.702;7.276;2022-09-01T01:42:57;20.50;50.10
19947;DHT22;10135;50.702;7.276;2022-09-01T01:45:01;20.50;50.20
19947;DHT22;10135;50.702;7.276;2022-09-01T01:47:04;20.50;50.10
19947;DHT22;10135;50.702;7.276;2022-09-01T01:49:13;20.50;50.10
19947;DHT22;10135;50.702;7.276;2022-09-01T01:51:20;20.50;50.20
19947;DHT22;10135;50.702;7.276;2022-09-01T01:53:26;20.50;50.20
19947;DHT22;10135;50.702;7.276;2022-09-01T01:55:29;20.50;50.20
19947;DHT22;10135;50.702;7.276;2022-09-01T01:57:30;20.50;50.20
19947;DHT22;10135;50.702;7.276;2022-09-01T01:59:32;20.50;50.20
19947;DHT22;10135;50.702;7.276;2022-09-01T02:01:33;20.50;50.20
19947;DHT22;10135;50.702;7.276;2022-09-01T02:03:34;20.50;50.20
19947;DHT22;10135;50.702;7.276;2022-09-01T02:05:38;20.40;50.10
19947;DHT22;10135;50.702;7.276;2022-09-01T02:07:39;20.40;50.10
19947;DHT22;10135;50.702;7.276;2022-09-01T02:09:42;20.30;50.10
19947;DHT22;10135;50.702;7.276;2022-09-01T02:11:45;20.30;50.10
19947;DHT22;10135;50.702;7.276;2022-09-01T02:13:46;20.30;50.20
19947;DHT22;10135;50.702;7.276;2022-09-01T02:15:52;20.30;50.30
19947;DHT22;10135;50.702;7.276;2022-09-01T02:17:54;20.20;50.40
19947;DHT22;10135;50.702;7.276;2022-09-01T02:19:59;20.30;50.30
19947;DHT22;10135;50.702;7.276;2022-09-01T02:22:00;20.20;50.30
19947;DHT22;10135;50.702;7.276;2022-09-01T02:24:05;20.20;50.30
19947;DHT22;10135;50.702;7.276;2022-09-01T02:26:08;20.20;50.40
19947;DHT22;10135;50.702;7.276;2022-09-01T02:28:13;20.20;50.40
19947;DHT22;10135;50.702;7.276;2022-09-01T02:30:15;20.20;50.40
19947;DHT22;10135;50.702;7.276;2022-09-01T02:32:16;20.20;50.40
19947;DHT22;10135;50.702;7.276;2022-09-01T02:34:22;20.20;50.40
19947;DHT22;10135;50.702;7.276;2022-09-01T02:36:24;20.20;50.50
19947;DHT22;10135;50.702;7.276;2022-09-01T02:38:27;20.10;50.40
19947;DHT22;10135;50.702;7.276;2022-09-01T02:40:29;20.10;50.50
19947;DHT22;10135;50.702;7.276;2022-09-01T02:42:30;20.10;50.50
19947;DHT22;10135;50.702;7.276;2022-09-01T02:44:31;20.10;50.60
19947;DHT22;10135;50.702;7.276;2022-09-01T02:46:32;20.10;50.60
19947;DHT22;10135;50.702;7.276;2022-09-01T02:48:36;20.10;50.60
19947;DHT22;10135;50.702;7.276;2022-09-01T02:50:40;20.10;50.70
19947;DHT22;10135;50.702;7.276;2022-09-01T02:52:42;20.10;50.60
19947;DHT22;10135;50.702;7.276;2022-09-01T02:54:44;20.10;50.70
19947;DHT22;10135;50.702;7.276;2022-09-01T02:56:45;20.10;50.60
19947;DHT22;10135;50.702;7.276;2022-09-01T02:58:48;20.10;50.60
19947;DHT22;10135;50.702;7.276;2022-09-01T03:00:54;20.00;50.60
19947;DHT22;10135;50.702;7.276;2022-09-01T03:02:58;20.00;50.80
19947;DHT22;10135;50.702;7.276;2022-09-01T03:05:00;20.00;51.40
19947;DHT22;10135;50.702;7.276;2022-09-01T03:07:02;20.00;50.70
19947;DHT22;10135;50.702;7.276;2022-09-01T03:09:07;19.90;50.70
19947;DHT22;10135;50.702;7.276;2022-09-01T03:11:10;19.90;51.40
19947;DHT22;10135;50.702;7.276;2022-09-01T03:13:15;19.90;50.80
19947;DHT22;10135;50.702;7.276;2022-09-01T03:15:17;19.90;50.90
19947;DHT22;10135;50.702;7.276;2022-09-01T03:17:18;19.90;50.80
19947;DHT22;10135;50.702;7.276;2022-09-01T03:19:18;19.90;50.90
19947;DHT22;10135;50.702;7.276;2022-09-01T03:21:20;19.80;50.90
19947;DHT22;10135;50.702;7.276;2022-09-01T03:23:22;19.80;50.90
19947;DHT22;10135;50.702;7.276;2022-09-01T03:25:24;19.80;50.90
19947;DHT22;10135;50.702;7.276;2022-09-01T03:27:25;19.80;50.90
19947;DHT22;10135;50.702;7.276;2022-09-01T03:29:26;19.80;51.00
19947;DHT22;10135;50.702;7.276;2022-09-01T03:31:27;19.80;51.10
19947;DHT22;10135;50.702;7.276;2022-09-01T03:33:28;19.80;51.10
19947;DHT22;10135;50.702;7.276;2022-09-01T03:35:29;19.70;51.10
19947;DHT22;10135;50.702;7.276;2022-09-01T03:37:34;19.70;51.10
19947;DHT22;10135;50.702;7.276;2022-09-01T03:39:36;19.60;51.20
19947;DHT22;10135;50.702;7.276;2022-09-01T03:41:37;19.60;51.20
19947;DHT22;10135;50.702;7.276;2022-09-01T03:43:38;19.50;51.20
19947;DHT22;10135;50.702;7.276;2022-09-01T03:45:39;19.50;51.30
19947;DHT22;10135;50.702;7.276;2022-09-01T03:47:41;19.50;51.40
19947;DHT22;10135;50.702;7.276;2022-09-01T03:49:42;19.50;51.40
19947;DHT22;10135;50.702;7.276;2022-09-01T03:51:44;19.40;51.40
19947;DHT22;10135;50.702;7.276;2022-09-01T03:53:45;19.40;51.40
19947;DHT22;10135;50.702;7.276;2022-09-01T03:55:47;19.40;51.50
19947;DHT22;10135;50.702;7.276;2022-09-01T03:57:49;19.40;51.50
19947;DHT22;10135;50.702;7.276;2022-09-01T03:59:50;19.30;51.60
19947;DHT22;10135;50.702;7.276;2022-09-01T04:01:51;19.30;51.60
19947;DHT22;10135;50.702;7.276;2022-09-01T04:03:52;19.30;51.50
19947;DHT22;10135;50.702;7.276;2022-09-01T04:05:53;19.20;51.50
19947;DHT22;10135;50.702;7.276;2022-09-01T04:07:56;19.20;51.50
19947;DHT22;10135;50.702;7.276;2022-09-01T04:09:58;19.20;51.60
19947;DHT22;10135;50.702;7.276;2022-09-01T04:11:58;19.10;51.60
19947;DHT22;10135;50.702;7.276;2022-09-01T04:14:00;19.10;51.70
19947;DHT22;10135;50.702;7.276;2022-09-01T04:16:01;19.00;51.70
19947;DHT22;10135;50.702;7.276;2022-09-01T04:18:05;19.00;51.70
19947;DHT22;10135;50.702;7.276;2022-09-01T04:20:10;18.90;51.70
19947;DHT22;10135;50.702;7.276;2022-09-01T04:22:10;18.90;51.80
19947;DHT22;10135;50.702;7.276;2022-09-01T04:24:13;18.90;51.90
19947;DHT22;10135;50.702;7.276;2022-09-01T04:26:14;18.80;51.80
19947;DHT22;10135;50.702;7.276;2022-09-01T04:28:20;18.70;51.90
19947;DHT22;10135;50.702;7.276;2022-09-01T04:30:23;18.70;51.90
19947;DHT22;10135;50.702;7.276;2022-09-01T04:32:26;18.60;51.90
19947;DHT22;10135;50.702;7.276;2022-09-01T04:34:29;18.60;52.00
19947;DHT22;10135;50.702;7.276;2022-09-01T04:36:43;18.50;52.10
19947;DHT22;10135;50.702;7.276;2022-09-01T04:38:46;18.50;52.30
19947;DHT22;10135;50.702;7.276;2022-09-01T04:40:48;18.50;52.40
19947;DHT22;10135;50.702;7.276;2022-09-01T04:42:49;18.50;52.40
19947;DHT22;10135;50.702;7.276;2022-09-01T04:44:51;18.50;52.40
19947;DHT22;10135;50.702;7.276;2022-09-01T04:46:53;18.40;52.50
19947;DHT22;10135;50.702;7.276;2022-09-01T04:48:55;18.40;52.50
19947;DHT22;10135;50.702;7.276;2022-09-01T04:50:56;18.40;52.50
19947;DHT22;10135;50.702;7.276;2022-09-01T04:52:58;18.40;52.50
19947;DHT22;10135;50.702;7.276;2022-09-01T04:55:02;18.40;52.60
19947;DHT22;10135;50.702;7.276;2022-09-01T04:57:03;18.30;52.60
19947;DHT22;10135;50.702;7.276;2022-09-01T04:59:06;18.40;52.70
19947;DHT22;10135;50.702;7.276;2022-09-01T05:01:22;18.40;52.80
19947;DHT22;10135;50.702;7.276;2022-09-01T05:03:24;18.40;53.10
19947;DHT22;10135;50.702;7.276;2022-09-01T05:05:24;18.40;52.80
19947;DHT22;10135;50.702;7.276;2022-09-01T05:07:26;18.40;52.80
19947;DHT22;10135;50.702;7.276;2022-09-01T05:09:32;18.40;52.90
19947;DHT22;10135;50.702;7.276;2022-09-01T05:11:36;18.40;53.10
19947;DHT22;10135;50.702;7.276;2022-09-01T05:13:39;18.50;52.90
19947;DHT22;10135;50.702;7.276;2022-09-01T05:15:40;18.50;52.90
19947;DHT22;10135;50.702;7.276;2022-09-01T05:17:45;18.50;52.90
19947;DHT22;10135;50.702;7.276;2022-09-01T05:19:47;18.50;52.90
19947;DHT22;10135;50.702;7.276;2022-09-01T05:21:50;18.50;52.90
19947;DHT22;10135;50.702;7.276;2022-09-01T05:23:51;18.50;52.90
19947;DHT22;10135;50.702;7.276;2022-09-01T05:25:53;18.50;53.50
19947;DHT22;10135;50.702;7.276;2022-09-01T05:27:54;18.50;53.00
19947;DHT22;10135;50.702;7.276;2022-09-01T05:29:56;18.50;53.00
19947;DHT22;10135;50.702;7.276;2022-09-01T05:31:59;18.50;53.20
19947;DHT22;10135;50.702;7.276;2022-09-01T05:34:08;18.50;53.70
19947;DHT22;10135;50.702;7.276;2022-09-01T05:36:11;18.50;53.10
19947;DHT22;10135;50.702;7.276;2022-09-01T05:38:13;18.50;53.10
19947;DHT22;10135;50.702;7.276;2022-09-01T05:40:14;18.50;53.20
19947;DHT22;10135;50.702;7.276;2022-09-01T05:42:15;18.50;53.20
19947;DHT22;10135;50.702;7.276;2022-09-01T05:44:16;18.60;53.30
19947;DHT22;10135;50.702;7.276;2022-09-01T05:46:21;18.60;53.30
19947;DHT22;10135;50.702;7.276;2022-09-01T05:48:24;18.60;53.40
19947;DHT22;10135;50.702;7.276;2022-09-01T05:50:24;18.60;53.40
19947;DHT22;10135;50.702;7.276;2022-09-01T05:52:28;18.60;53.40
19947;DHT22;10135;50.702;7.276;2022-09-01T05:54:33;18.70;53.50
19947;DHT22;10135;50.702;7.276;2022-09-01T05:56:36;18.70;53.50
19947;DHT22;10135;50.702;7.276;2022-09-01T05:58:40;18.80;53.50
19947;DHT22;10135;50.702;7.276;2022-09-01T06:00:46;18.80;53.60
19947;DHT22;10135;50.702;7.276;2022-09-01T06:02:48;18.90;53.60
19947;DHT22;10135;50.702;7.276;2022-09-01T06:04:49;19.00;53.60
19947;DHT22;10135;50.702;7.276;2022-09-01T06:06:50;19.00;53.60
19947;DHT22;10135;50.702;7.276;2022-09-01T06:08:53;19.10;53.70
19947;DHT22;10135;50.702;7.276;2022-09-01T06:10:58;19.10;53.70
19947;DHT22;10135;50.702;7.276;2022-09-01T06:12:59;19.30;53.90
19947;DHT22;10135;50.702;7.276;2022-09-01T06:15:01;19.40;53.90
19947;DHT22;10135;50.702;7.276;2022-09-01T06:17:03;19.50;54.00
19947;DHT22;10135;50.702;7.276;2022-09-01T06:19:04;19.60;54.10
19947;DHT22;10135;50.702;7.276;2022-09-01T06:21:05;19.70;54.30
19947;DHT22;10135;50.702;7.276;2022-09-01T06:23:08;19.90;54.40
19947;DHT22;10135;50.702;7.276;2022-09-01T06:25:11;20.10;54.30
19947;DHT22;10135;50.702;7.276;2022-09-01T06:27:13;20.30;54.10
19947;DHT22;10135;50.702;7.276;2022-09-01T06:29:19;20.40;53.80
19947;DHT22;10135;50.702;7.276;2022-09-01T06:31:25;20.60;53.70
19947;DHT22;10135;50.702;7.276;2022-09-01T06:33:29;20.60;53.40
19947;DHT22;10135;50.702;7.276;2022-09-01T06:35:30;20.70;53.30
19947;DHT22;10135;50.702;7.276;2022-09-01T06:37:31;20.70;53.20
19947;DHT22;10135;50.702;7.276;2022-09-01T06:39:33;20.70;53.00
19947;DHT22;10135;50.702;7.276;2022-09-01T06:41:35;20.70;53.00
19947;DHT22;10135;50.702;7.276;2022-09-01T06:43:41;20.70;52.90
19947;DHT22;10135;50.702;7.276;2022-09-01T06:45:44;20.70;53.00
19947;DHT22;10135;50.702;7.276;2022-09-01T06:47:53;20.70;53.00
19947;DHT22;10135;50.702;7.276;2022-09-01T06:49:55;20.70;53.10
19947;DHT22;10135;50.702;7.276;2022-09-01T06:51:59;20.70;53.10
19947;DHT22;10135;50.702;7.276;2022-09-01T06:54:02;20.70;53.20
19947;DHT22;10135;50.702;7.276;2022-09-01T06:56:02;20.60;53.10
19947;DHT22;10135;50.702;7.276;2022-09-01T06:58:05;20.60;53.10
19947;DHT22;10135;50.702;7.276;2022-09-01T07:00:10;20.70;53.20
19947;DHT22;10135;50.702;7.276;2022-09-01T07:02:20;20.60;53.10
19947;DHT22;10135;50.702;7.276;2022-09-01T07:04:21;20.70;53.20
19947;DHT22;10135;50.702;7.276;2022-09-01T07:06:23;20.70;53.20
19947;DHT22;10135;50.702;7.276;2022-09-01T07:08:26;20.70;53.10
19947;DHT22;10135;50.702;7.276;2022-09-01T07:10:27;20.80;53.10
19947;DHT22;10135;50.702;7.276;2022-09-01T07:12:29;20.80;53.20
19947;DHT22;10135;50.702;7.276;2022-09-01T07:14:31;20.80;53.10
19947;DHT22;10135;50.702;7.276;2022-09-01T07:16:34;20.80;53.10
19947;DHT22;10135;50.702;7.276;2022-09-01T07:18:39;20.80;53.10
19947;DHT22;10135;50.702;7.276;2022-09-01T07:20:40;20.90;53.10
19947;DHT22;10135;50.702;7.276;2022-09-01T07:22:41;20.90;53.10
19947;DHT22;10135;50.702;7.276;2022-09-01T07:24:42;21.00;53.20
19947;DHT22;10135;50.702;7.276;2022-09-01T07:26:46;21.00;53.20
19947;DHT22;10135;50.702;7.276;2022-09-01T07:28:52;21.10;53.10
19947;DHT22;10135;50.702;7.276;2022-09-01T07:30:53;21.10;53.00
19947;DHT22;10135;50.702;7.276;2022-09-01T07:32:54;21.10;53.00
19947;DHT22;10135;50.702;7.276;2022-09-01T07:34:55;21.10;52.90
19947;DHT22;10135;50.702;7.276;2022-09-01T07:36:56;21.20;52.90
19947;DHT22;10135;50.702;7.276;2022-09-01T07:38:59;21.20;52.90
19947;DHT22;10135;50.702;7.276;2022-09-01T07:41:00;21.20;52.90
19947;DHT22;10135;50.702;7.276;2022-09-01T07:43:01;21.30;52.90
19947;DHT22;10135;50.702;7.276;2022-09-01T07:45:08;21.30;52.90
19947;DHT22;10135;50.702;7.276;2022-09-01T07:47:10;21.40;52.90
19947;DHT22;10135;50.702;7.276;2022-09-01T07:49:13;21.40;52.90
19947;DHT22;10135;50.702;7.276;2022-09-01T07:51:16;21.40;52.80
19947;DHT22;10135;50.702;7.276;2022-09-01T07:53:21;21.50;52.80
19947;DHT22;10135;50.702;7.276;2022-09-01T07:55:24;21.50;52.70
19947;DHT22;10135;50.702;7.276;2022-09-01T07:57:27;21.50;52.70
19947;DHT22;10135;50.702;7.276;2022-09-01T07:59:27;21.60;52.70
19947;DHT22;10135;50.702;7.276;2022-09-01T08:01:29;21.60;52.70
19947;DHT22;10135;50.702;7.276;2022-09-01T08:03:30;21.60;52.60
19947;DHT22;10135;50.702;7.276;2022-09-01T08:05:32;21.70;52.50
19947;DHT22;10135;50.702;7.276;2022-09-01T08:07:34;21.70;52.50
19947;DHT22;10135;50.702;7.276;2022-09-01T08:09:36;21.70;52.60
19947;DHT22;10135;50.702;7.276;2022-09-01T08:11:37;21.80;52.50
19947;DHT22;10135;50.702;7.276;2022-09-01T08:13:38;21.80;52.50
19947;DHT22;10135;50.702;7.276;2022-09-01T08:15:39;21.90;52.60
19947;DHT22;10135;50.702;7.276;2022-09-01T08:17:41;21.90;52.50
19947;DHT22;10135;50.702;7.276;2022-09-01T08:19:42;21.90;52.40
19947;DHT22;10135;50.702;7.276;2022-09-01T08:21:42;21.90;52.30
19947;DHT22;10135;50.702;7.276;2022-09-01T08:23:44;22.00;52.30
19947;DHT22;10135;50.702;7.276;2022-09-01T08:25:47;22.10;52.30
19947;DHT22;10135;50.702;7.276;2022-09-01T08:27:49;22.10;52.10
19947;DHT22;10135;50.702;7.276;2022-09-01T08:29:50;22.10;52.10
19947;DHT22;10135;50.702;7.276;2022-09-01T08:31:50;22.20;52.00
19947;DHT22;10135;50.702;7.276;2022-09-01T08:33:53;22.20;51.90
19947;DHT22;10135;50.702;7.276;2022-09-01T08:35:54;22.30;52.00
19947;DHT22;10135;50.702;7.276;2022-09-01T08:37:57;22.30;51.90
19947;DHT22;10135;50.702;7.276;2022-09-01T08:39:59;22.30;51.90
19947;DHT22;10135;50.702;7.276;2022-09-01T08:45:03;22.50;51.80
19947;DHT22;10135;50.702;7.276;2022-09-01T08:47:16;22.50;51.70
19947;DHT22;10135;50.702;7.276;2022-09-01T08:49:21;22.60;51.80
19947;DHT22;10135;50.702;7.276;2022-09-01T08:51:36;22.60;51.80
19947;DHT22;10135;50.702;7.276;2022-09-01T08:53:46;22.70;51.40
19947;DHT22;10135;50.702;7.276;2022-09-01T08:55:56;22.70;51.50
19947;DHT22;10135;50.702;7.276;2022-09-01T08:57:59;22.80;51.50
19947;DHT22;10135;50.702;7.276;2022-09-01T09:00:00;22.80;51.60
19947;DHT22;10135;50.702;7.276;2022-09-01T09:07:38;23.00;51.20
19947;DHT22;10135;50.702;7.276;2022-09-01T09:10:09;23.00;51.00
19947;DHT22;10135;50.702;7.276;2022-09-01T09:12:38;23.00;51.00
19947;DHT22;10135;50.702;7.276;2022-09-01T09:16:57;23.10;51.10
19947;DHT22;10135;50.702;7.276;2022-09-01T09:19:07;23.10;51.10
19947;DHT22;10135;50.702;7.276;2022-09-01T09:21:18;23.10;50.90
19947;DHT22;10135;50.702;7.276;2022-09-01T09:23:30;23.10;50.90
19947;DHT22;10135;50.702;7.276;2022-09-01T09:25:38;23.20;50.80
19947;DHT22;10135;50.702;7.276;2022-09-01T09:27:42;23.20;50.90
19947;DHT22;10135;50.702;7.276;2022-09-01T09:29:48;23.30;50.90
19947;DHT22;10135;50.702;7.276;2022-09-01T09:32:04;23.30;50.90
19947;DHT22;10135;50.702;7.276;2022-09-01T09:36:32;23.40;50.60
19947;DHT22;10135;50.702;7.276;2022-09-01T09:38:35;23.40;50.70
19947;DHT22;10135;50.702;7.276;2022-09-01T09:40:35;23.50;50.80
19947;DHT22;10135;50.702;7.276;2022-09-01T09:44:57;23.50;50.30
19947;DHT22;10135;50.702;7.276;2022-09-01T09:46:59;23.60;50.60
19947;DHT22;10135;50.702;7.276;2022-09-01T09:49:26;23.60;50.60
19947;DHT22;10135;50.702;7.276;2022-09-01T09:51:32;23.70;50.40
19947;DHT22;10135;50.702;7.276;2022-09-01T09:53:33;23.70;50.50
19947;DHT22;10135;50.702;7.276;2022-09-01T09:55:33;23.70;50.40
19947;DHT22;10135;50.702;7.276;2022-09-01T09:57:38;23.80;50.40
19947;DHT22;10135;50.702;7.276;2022-09-01T09:59:47;23.80;50.10
19947;DHT22;10135;50.702;7.276;2022-09-01T10:01:48;23.80;49.90
19947;DHT22;10135;50.702;7.276;2022-09-01T10:03:56;23.80;50.10
19947;DHT22;10135;50.702;7.276;2022-09-01T10:05:58;23.80;50.00
19947;DHT22;10135;50.702;7.276;2022-09-01T10:07:59;23.80;50.00
19947;DHT22;10135;50.702;7.276;2022-09-01T10:10:07;23.90;50.10
19947;DHT22;10135;50.702;7.276;2022-09-01T10:12:27;23.90;50.00
19947;DHT22;10135;50.702;7.276;2022-09-01T10:14:39;23.90;50.10
19947;DHT22;10135;50.702;7.276;2022-09-01T10:16:44;24.00;49.90
19947;DHT22;10135;50.702;7.276;2022-09-01T10:18:49;24.00;50.60
19947;DHT22;10135;50.702;7.276;2022-09-01T10:21:03;24.10;50.00
19947;DHT22;10135;50.702;7.276;2022-09-01T10:23:07;24.00;49.50
19947;DHT22;10135;50.702;7.276;2022-09-01T10:25:30;24.10;49.90
19947;DHT22;10135;50.702;7.276;2022-09-01T10:27:36;24.10;49.70
19947;DHT22;10135;50.702;7.276;2022-09-01T10:29:43;24.10;49.80
19947;DHT22;10135;50.702;7.276;2022-09-01T10:31:50;24.10;49.80
19947;DHT22;10135;50.702;7.276;2022-09-01T10:33:52;24.20;49.80
19947;DHT22;10135;50.702;7.276;2022-09-01T10:35:54;24.20;49.80
19947;DHT22;10135;50.702;7.276;2022-09-01T10:37:57;24.40;49.80
19947;DHT22;10135;50.702;7.276;2022-09-01T10:40:20;24.40;49.70
19947;DHT22;10135;50.702;7.276;2022-09-01T10:42:35;24.40;49.30
19947;DHT22;10135;50.702;7.276;2022-09-01T10:44:54;24.40;49.50
19947;DHT22;10135;50.702;7.276;2022-09-01T10:46:57;24.50;49.50
19947;DHT22;10135;50.702;7.276;2022-09-01T10:49:17;24.50;49.50
19947;DHT22;10135;50.702;7.276;2022-09-01T10:51:43;24.50;49.20
19947;DHT22;10135;50.702;7.276;2022-09-01T10:56:15;24.50;49.10
19947;DHT22;10135;50.702;7.276;2022-09-01T10:58:38;24.50;49.00
19947;DHT22;10135;50.702;7.276;2022-09-01T11:00:46;24.50;49.10
19947;DHT22;10135;50.702;7.276;2022-09-01T11:05:12;24.60;49.00
19947;DHT22;10135;50.702;7.276;2022-09-01T11:11:45;24.60;48.90
19947;DHT22;10135;50.702;7.276;2022-09-01T11:13:53;24.60;48.80
19947;DHT22;10135;50.702;7.276;2022-09-01T11:15:55;24.70;49.00
19947;DHT22;10135;50.702;7.276;2022-09-01T11:17:57;24.80;49.10
19947;DHT22;10135;50.702;7.276;2022-09-01T11:22:31;24.90;48.80
19947;DHT22;10135;50.702;7.276;2022-09-01T11:26:46;25.00;49.00
19947;DHT22;10135;50.702;7.276;2022-09-01T11:28:48;25.10;48.80
19947;DHT22;10135;50.702;7.276;2022-09-01T11:30:55;25.20;48.90
19947;DHT22;10135;50.702;7.276;2022-09-01T11:35:33;25.40;48.40
19947;DHT22;10135;50.702;7.276;2022-09-01T11:37:34;25.50;48.70
19947;DHT22;10135;50.702;7.276;2022-09-01T11:39:53;25.60;48.70
19947;DHT22;10135;50.702;7.276;2022-09-01T11:44:12;25.70;48.30
19947;DHT22;10135;50.702;7.276;2022-09-01T11:46:35;25.90;48.30
19947;DHT22;10135;50.702;7.276;2022-09-01T11:48:38;26.00;48.20
19947;DHT22;10135;50.702;7.276;2022-09-01T11:50:44;26.10;48.30
19947;DHT22;10135;50.702;7.276;2022-09-01T11:53:13;26.10;48.20
19947;DHT22;10135;50.702;7.276;2022-09-01T11:55:32;26.20;47.70
19947;DHT22;10135;50.702;7.276;2022-09-01T11:57:39;26.20;47.40
19947;DHT22;10135;50.702;7.276;2022-09-01T11:59:42;26.20;47.50
19947;DHT22;10135;50.702;7.276;2022-09-01T12:01:43;26.20;47.50
19947;DHT22;10135;50.702;7.276;2022-09-01T12:03:45;26.10;47.50
19947;DHT22;10135;50.702;7.276;2022-09-01T12:05:52;26.10;47.40
19947;DHT22;10135;50.702;7.276;2022-09-01T12:08:03;26.00;47.20
19947;DHT22;10135;50.702;7.276;2022-09-01T12:10:28;26.00;47.40
19947;DHT22;10135;50.702;7.276;2022-09-01T12:12:37;25.90;47.00
19947;DHT22;10135;50.702;7.276;2022-09-01T12:14:39;25.90;47.40
19947;DHT22;10135;50.702;7.276;2022-09-01T12:16:40;25.90;47.40
19947;DHT22;10135;50.702;7.276;2022-09-01T12:18:47;25.80;47.30
19947;DHT22;10135;50.702;7.276;2022-09-01T12:20:51;25.80;47.10
19947;DHT22;10135;50.702;7.276;2022-09-01T12:22:53;25.70;47.20
19947;DHT22;10135;50.702;7.276;2022-09-01T12:24:55;25.70;47.30
19947;DHT22;10135;50.702;7.276;2022-09-01T12:26:55;25.70;47.30
19947;DHT22;10135;50.702;7.276;2022-09-01T12:28:58;25.70;47.20
19947;DHT22;10135;50.702;7.276;2022-09-01T12:31:01;25.70;47.20
19947;DHT22;10135;50.702;7.276;2022-09-01T12:33:06;25.70;47.10
19947;DHT22;10135;50.702;7.276;2022-09-01T12:35:18;25.70;47.10
19947;DHT22;10135;50.702;7.276;2022-09-01T12:37:23;25.70;46.90
19947;DHT22;10135;50.702;7.276;2022-09-01T12:39:41;25.70;47.10
19947;DHT22;10135;50.702;7.276;2022-09-01T12:42:06;25.70;46.90
19947;DHT22;10135;50.702;7.276;2022-09-01T12:44:42;25.80;46.80
19947;DHT22;10135;50.702;7.276;2022-09-01T12:46:46;25.90;46.90
19947;DHT22;10135;50.702;7.276;2022-09-01T12:48:46;25.90;47.10
19947;DHT22;10135;50.702;7.276;2022-09-01T12:50:47;25.90;47.00
19947;DHT22;10135;50.702;7.276;2022-09-01T12:52:55;25.90;46.90
19947;DHT22;10135;50.702;7.276;2022-09-01T12:56:58;26.00;46.90
19947;DHT22;10135;50.702;7.276;2022-09-01T12:59:11;26.00;46.80
19947;DHT22;10135;50.702;7.276;2022-09-01T13:01:26;26.00;46.30
19947;DHT22;10135;50.702;7.276;2022-09-01T13:03:31;26.10;46.20
19947;DHT22;10135;50.702;7.276;2022-09-01T13:05:40;26.00;46.40
19947;DHT22;10135;50.702;7.276;2022-09-01T13:07:41;26.00;46.10
19947;DHT22;10135;50.702;7.276;2022-09-01T13:09:42;26.00;46.40
19947;DHT22;10135;50.702;7.276;2022-09-01T13:11:43;26.00;46.30
19947;DHT22;10135;50.702;7.276;2022-09-01T13:13:46;26.00;46.40
19947;DHT22;10135;50.702;7.276;2022-09-01T13:15:50;26.10;46.30
19947;DHT22;10135;50.702;7.276;2022-09-01T13:17:53;26.10;46.20
19947;DHT22;10135;50.702;7.276;2022-09-01T13:19:54;26.20;46.30
19947;DHT22;10135;50.702;7.276;2022-09-01T13:21:55;26.20;46.20
19947;DHT22;10135;50.702;7.276;2022-09-01T13:23:56;26.30;46.20
19947;DHT22;10135;50.702;7.276;2022-09-01T13:25:57;26.30;46.10
19947;DHT22;10135;50.702;7.276;2022-09-01T13:28:01;26.40;46.00
19947;DHT22;10135;50.702;7.276;2022-09-01T13:30:04;26.50;45.90
19947;DHT22;10135;50.702;7.276;2022-09-01T13:32:06;26.60;45.90
19947;DHT22;10135;50.702;7.276;2022-09-01T13:34:08;26.70;45.90
19947;DHT22;10135;50.702;7.276;2022-09-01T13:36:08;26.80;45.80
19947;DHT22;10135;50.702;7.276;2022-09-01T13:38:09;26.90;45.70
19947;DHT22;10135;50.702;7.276;2022-09-01T13:40:13;26.90;45.60
19947;DHT22;10135;50.702;7.276;2022-09-01T13:42:16;27.00;45.50